sensor_id;sensor_type;location;lat;lon;timestamp;temperature;humidity
12233;DHT22;6179;51.748;8.728;2022-07-21T00:00:42;19.60;98.30
12233;DHT22;6179;51.748;8.728;2022-07-21T00:06:44;19.70;98.30
12233;DHT22;6179;51.748;8.728;2022-07-21T00:12:45;19.50;98.30
12233;DHT22;6179;51.748;8.728;2022-07-21T00:18:46;19.40;98.30
12233;DHT22;6179;51.748;8.728;2022-07-21T00:24:46;19.50;98.30
12233;DHT22;6179;51.748;8.728;2022-07-21T00:30:47;19.50;98.30
12233;DHT22;6179;51.748;8.728;2022-07-21T00:36:48;19.50;98.30
12233;DHT22;6179;51.748;8.728;2022-07-21T00:42:48;19.50;98.30
12233;DHT22;6179;51.748;8.728;2022-07-21T00:48:49;19.60;98.30
12233;DHT22;6179;51.748;8.728;2022-07-21T00:54:50;19.90;98.30
12233;DHT22;6179;51.748;8.728;2022-07-21T01:00:50;19.80;98.30
12233;DHT22;6179;51.748;8.728;2022-07-21T01:06:51;19.90;98.30
12233;DHT22;6179;51.748;8.728;2022-07-21T01:12:52;20.30;98.30
12233;DHT22;6179;51.748;8.728;2022-07-21T01:18:52;19.90;98.30
12233;DHT22;6179;51.748;8.728;2022-07-21T01:24:54;19.70;98.30
12233;DHT22;6179;51.748;8.728;2022-07-21T01:30:54;20.00;98.30
12233;DHT22;6179;51.748;8.728;2022-07-21T01:36:55;19.90;98.30
12233;DHT22;6179;51.748;8.728;2022-07-21T01:42:57;19.90;98.30
12233;DHT22;6179;51.748;8.728;2022-07-21T01:48:58;19.70;98.30
12233;DHT22;6179;51.748;8.728;2022-07-21T01:54:59;19.90;98.30
12233;DHT22;6179;51.748;8.728;2022-07-21T02:00:59;19.70;98.30
12233;DHT22;6179;51.748;8.728;2022-07-21T02:07:01;19.50;98.30
12233;DHT22;6179;51.748;8.728;2022-07-21T02:13:02;19.50;98.30
12233;DHT22;6179;51.748;8.728;2022-07-21T02:19:04;20.20;98.30
12233;DHT22;6179;51.748;8.728;2022-07-21T02:25:05;19.90;98.30
12233;DHT22;6179;51.748;8.728;2022-07-21T02:31:07;19.60;98.30
12233;DHT22;6179;51.748;8.728;2022-07-21T02:37:07;19.40;98.30
12233;DHT22;6179;51.748;8.728;2022-07-21T02:43:08;19.60;98.30
12233;DHT22;6179;51.748;8.728;2022-07-21T02:49:09;19.80;98.30
12233;DHT22;6179;51.748;8.728;2022-07-21T02:55:11;19.80;98.30
12233;DHT22;6179;51.748;8.728;2022-07-21T03:01:12;19.80;98.30
12233;DHT22;6179;51.748;8.728;2022-07-21T03:07:12;19.60;98.30
12233;DHT22;6179;51.748;8.728;2022-07-21T03:13:13;19.90;98.30
12233;DHT22;6179;51.748;8.728;2022-07-21T03:19:14;20.00;98.30
12233;DHT22;6179;51.748;8.728;2022-07-21T03:25:15;19.80;98.30
12233;DHT22;6179;51.748;8.728;2022-07-21T03:31:17;19.90;98.30
12233;DHT22;6179;51.748;8.728;2022-07-21T03:37:17;20.00;98.30
12233;DHT22;6179;51.748;8.728;2022-07-21T03:43:18;19.80;98.30
12233;DHT22;6179;51.748;8.728;2022-07-21T03:49:19;19.90;98.30
12233;DHT22;6179;51.748;8.728;2022-07-21T03:55:20;19.80;98.30
12233;DHT22;6179;51.748;8.728;2022-07-21T04:01:21;19.80;98.30
12233;DHT22;6179;51.748;8.728;2022-07-21T04:07:22;19.60;98.30
12233;DHT22;6179;51.748;8.728;2022-07-21T04:13:22;19.30;98.30
12233;DHT22;6179;51.748;8.728;2022-07-21T04:19:23;19.40;98.30
12233;DHT22;6179;51.748;8.728;2022-07-21T04:25:23;19.50;98.30
12233;DHT22;6179;51.748;8.728;2022-07-21T04:31:24;19.50;98.30
12233;DHT22;6179;51.748;8.728;2022-07-21T04:37:25;19.20;98.30
12233;DHT22;6179;51.748;8.728;2022-07-21T04:43:26;19.10;98.30
12233;DHT22;6179;51.748;8.728;2022-07-21T04:49:26;19.30;98.30
12233;DHT22;6179;51.748;8.728;2022-07-21T04:55:27;19.20;98.30
12233;DHT22;6179;51.748;8.728;2022-07-21T05:01:28;19.20;98.30
12233;DHT22;6179;51.748;8.728;2022-07-21T05:07:29;19.30;98.30
12233;DHT22;6179;51.748;8.728;2022-07-21T05:13:30;19.10;98.30
12233;DHT22;6179;51.748;8.728;2022-07-21T05:19:30;19.10;98.30
12233;DHT22;6179;51.748;8.728;2022-07-21T05:25:31;19.80;98.30
12233;DHT22;6179;51.748;8.728;2022-07-21T05:31:32;19.90;98.30
12233;DHT22;6179;51.748;8.728;2022-07-21T05:37:33;20.10;98.30
12233;DHT22;6179;51.748;8.728;2022-07-21T05:43:33;19.80;98.30
12233;DHT22;6179;51.748;8.728;2022-07-21T05:49:34;19.70;98.30
12233;DHT22;6179;51.748;8.728;2022-07-21T05:55:35;19.80;98.30
12233;DHT22;6179;51.748;8.728;2022-07-21T06:01:35;20.30;98.30
12233;DHT22;6179;51.748;8.728;2022-07-21T06:07:37;20.20;98.30
12233;DHT22;6179;51.748;8.728;2022-07-21T06:13:38;20.10;98.30
12233;DHT22;6179;51.748;8.728;2022-07-21T06:19:39;20.00;98.30
12233;DHT22;6179;51.748;8.728;2022-07-21T06:25:40;20.60;98.30
12233;DHT22;6179;51.748;8.728;2022-07-21T06:31:40;20.60;98.30
12233;DHT22;6179;51.748;8.728;2022-07-21T06:37:45;20.40;98.30
12233;DHT22;6179;51.748;8.728;2022-07-21T06:43:46;20.50;98.30
12233;DHT22;6179;51.748;8.728;2022-07-21T06:49:46;20.70;98.30
12233;DHT22;6179;51.748;8.728;2022-07-21T06:55:47;20.70;98.30
12233;DHT22;6179;51.748;8.728;2022-07-21T07:01:50;20.90;98.30
12233;DHT22;6179;51.748;8.728;2022-07-21T07:07:51;21.20;98.30
12233;DHT22;6179;51.748;8.728;2022-07-21T07:13:51;21.70;97.90
12233;DHT22;6179;51.748;8.728;2022-07-21T07:19:52;21.70;98.30
12233;DHT22;6179;51.748;8.728;2022-07-21T07:25:53;21.80;98.30
12233;DHT22;6179;51.748;8.728;2022-07-21T07:31:53;21.70;98.30
12233;DHT22;6179;51.748;8.728;2022-07-21T07:37:54;21.20;98.30
12233;DHT22;6179;51.748;8.728;2022-07-21T07:43:55;21.20;98.30
12233;DHT22;6179;51.748;8.728;2022-07-21T07:49:56;20.90;98.30
12233;DHT22;6179;51.748;8.728;2022-07-21T07:55:56;21.20;98.30
12233;DHT22;6179;51.748;8.728;2022-07-21T08:01:57;21.30;98.30
12233;DHT22;6179;51.748;8.728;2022-07-21T08:07:58;20.90;98.30
12233;DHT22;6179;51.748;8.728;2022-07-21T08:13:58;21.30;98.30
12233;DHT22;6179;51.748;8.728;2022-07-21T08:19:59;21.90;98.30
12233;DHT22;6179;51.748;8.728;2022-07-21T08:26:00;21.60;98.30
12233;DHT22;6179;51.748;8.728;2022-07-21T08:32:00;21.90;97.40
12233;DHT22;6179;51.748;8.728;2022-07-21T08:38:06;22.10;96.80
12233;DHT22;6179;51.748;8.728;2022-07-21T08:44:07;22.20;95.00
12233;DHT22;6179;51.748;8.728;2022-07-21T08:50:11;22.30;93.90
12233;DHT22;6179;51.748;8.728;2022-07-21T08:56:12;23.00;91.50
12233;DHT22;6179;51.748;8.728;2022-07-21T09:02:34;23.00;95.30
12233;DHT22;6179;51.748;8.728;2022-07-21T09:14:40;22.80;90.40
12233;DHT22;6179;51.748;8.728;2022-07-21T09:20:49;23.10;93.60
12233;DHT22;6179;51.748;8.728;2022-07-21T09:33:22;23.40;93.10
12233;DHT22;6179;51.748;8.728;2022-07-21T09:39:45;23.40;91.30
12233;DHT22;6179;51.748;8.728;2022-07-21T09:45:47;22.90;94.50
12233;DHT22;6179;51.748;8.728;2022-07-21T09:51:49;22.90;96.30
12233;DHT22;6179;51.748;8.728;2022-07-21T09:57:50;22.90;94.80
12233;DHT22;6179;51.748;8.728;2022-07-21T10:03:52;22.80;95.90
12233;DHT22;6179;51.748;8.728;2022-07-21T10:09:53;23.20;97.10
12233;DHT22;6179;51.748;8.728;2022-07-21T10:15:54;23.50;93.70
12233;DHT22;6179;51.748;8.728;2022-07-21T10:22:04;23.70;91.20
12233;DHT22;6179;51.748;8.728;2022-07-21T10:28:11;24.00;89.70
12233;DHT22;6179;51.748;8.728;2022-07-21T10:34:12;24.40;86.10
12233;DHT22;6179;51.748;8.728;2022-07-21T10:46:33;23.80;88.10
12233;DHT22;6179;51.748;8.728;2022-07-21T10:58:40;23.60;87.50
12233;DHT22;6179;51.748;8.728;2022-07-21T11:05:04;23.90;91.20
12233;DHT22;6179;51.748;8.728;2022-07-21T11:11:16;24.60;85.60
12233;DHT22;6179;51.748;8.728;2022-07-21T11:17:28;24.80;85.70
12233;DHT22;6179;51.748;8.728;2022-07-21T11:29:42;25.10;83.30
12233;DHT22;6179;51.748;8.728;2022-07-21T11:35:43;25.20;81.60
12233;DHT22;6179;51.748;8.728;2022-07-21T11:41:44;24.40;81.80
12233;DHT22;6179;51.748;8.728;2022-07-21T11:47:48;25.40;81.50
12233;DHT22;6179;51.748;8.728;2022-07-21T11:53:49;25.70;82.20
12233;DHT22;6179;51.748;8.728;2022-07-21T11:59:51;25.40;79.60
12233;DHT22;6179;51.748;8.728;2022-07-21T12:05:52;25.40;77.10
12233;DHT22;6179;51.748;8.728;2022-07-21T12:11:53;25.50;78.70
12233;DHT22;6179;51.748;8.728;2022-07-21T12:17:56;25.40;77.80
12233;DHT22;6179;51.748;8.728;2022-07-21T12:23:57;25.60;77.10
12233;DHT22;6179;51.748;8.728;2022-07-21T12:29:57;25.20;76.60
12233;DHT22;6179;51.748;8.728;2022-07-21T12:36:00;25.00;78.30
12233;DHT22;6179;51.748;8.728;2022-07-21T12:42:02;25.10;78.10
12233;DHT22;6179;51.748;8.728;2022-07-21T12:48:10;25.30;77.50
12233;DHT22;6179;51.748;8.728;2022-07-21T12:54:11;25.20;77.80
12233;DHT22;6179;51.748;8.728;2022-07-21T13:00:12;25.40;76.60
12233;DHT22;6179;51.748;8.728;2022-07-21T13:06:13;24.60;84.00
12233;DHT22;6179;51.748;8.728;2022-07-21T13:12:15;24.40;86.40
12233;DHT22;6179;51.748;8.728;2022-07-21T13:18:15;24.30;84.00
12233;DHT22;6179;51.748;8.728;2022-07-21T13:24:16;24.40;84.60
12233;DHT22;6179;51.748;8.728;2022-07-21T13:30:18;24.60;85.40
12233;DHT22;6179;51.748;8.728;2022-07-21T13:36:18;24.40;83.10
12233;DHT22;6179;51.748;8.728;2022-07-21T13:42:19;24.60;81.10
12233;DHT22;6179;51.748;8.728;2022-07-21T13:48:20;24.40;78.90
12233;DHT22;6179;51.748;8.728;2022-07-21T13:54:20;23.90;80.90
12233;DHT22;6179;51.748;8.728;2022-07-21T14:00:21;23.20;83.10
12233;DHT22;6179;51.748;8.728;2022-07-21T14:06:22;23.60;83.20
12233;DHT22;6179;51.748;8.728;2022-07-21T14:12:23;23.90;84.30
12233;DHT22;6179;51.748;8.728;2022-07-21T14:18:24;23.90;84.20
12233;DHT22;6179;51.748;8.728;2022-07-21T14:24:25;23.80;85.40
12233;DHT22;6179;51.748;8.728;2022-07-21T14:30:44;23.90;85.30
12233;DHT22;6179;51.748;8.728;2022-07-21T14:36:48;24.10;86.60
12233;DHT22;6179;51.748;8.728;2022-07-21T14:42:49;24.70;86.30
12233;DHT22;6179;51.748;8.728;2022-07-21T14:48:52;24.70;85.30
12233;DHT22;6179;51.748;8.728;2022-07-21T14:54:52;24.10;87.30
12233;DHT22;6179;51.748;8.728;2022-07-21T15:00:53;23.90;87.20
12233;DHT22;6179;51.748;8.728;2022-07-21T15:06:54;23.80;86.90
12233;DHT22;6179;51.748;8.728;2022-07-21T15:12:55;23.60;87.40
12233;DHT22;6179;51.748;8.728;2022-07-21T15:18:55;23.90;87.80
12233;DHT22;6179;51.748;8.728;2022-07-21T15:24:57;23.00;91.40
12233;DHT22;6179;51.748;8.728;2022-07-21T15:30:58;23.10;91.20
12233;DHT22;6179;51.748;8.728;2022-07-21T15:36:59;23.00;91.70
12233;DHT22;6179;51.748;8.728;2022-07-21T15:43:00;23.20;90.90
12233;DHT22;6179;51.748;8.728;2022-07-21T15:49:00;23.50;89.90
12233;DHT22;6179;51.748;8.728;2022-07-21T15:55:02;23.30;90.60
12233;DHT22;6179;51.748;8.728;2022-07-21T16:01:02;22.50;92.00
12233;DHT22;6179;51.748;8.728;2022-07-21T16:07:04;22.50;94.80
12233;DHT22;6179;51.748;8.728;2022-07-21T16:13:05;22.40;95.30
12233;DHT22;6179;51.748;8.728;2022-07-21T16:19:06;21.60;98.30
12233;DHT22;6179;51.748;8.728;2022-07-21T16:25:07;20.70;98.30
12233;DHT22;6179;51.748;8.728;2022-07-21T16:31:07;20.10;98.30
12233;DHT22;6179;51.748;8.728;2022-07-21T16:37:08;20.40;98.30
12233;DHT22;6179;51.748;8.728;2022-07-21T16:43:09;20.50;98.30
12233;DHT22;6179;51.748;8.728;2022-07-21T16:49:10;20.50;98.30
12233;DHT22;6179;51.748;8.728;2022-07-21T16:55:11;20.30;98.30
12233;DHT22;6179;51.748;8.728;2022-07-21T17:01:11;20.30;98.30
12233;DHT22;6179;51.748;8.728;2022-07-21T17:07:12;20.30;98.30
12233;DHT22;6179;51.748;8.728;2022-07-21T17:13:13;19.80;98.30
12233;DHT22;6179;51.748;8.728;2022-07-21T17:19:14;19.60;98.30
12233;DHT22;6179;51.748;8.728;2022-07-21T17:25:15;19.40;98.30
12233;DHT22;6179;51.748;8.728;2022-07-21T17:31:16;19.60;98.30
12233;DHT22;6179;51.748;8.728;2022-07-21T17:37:16;19.40;98.30
12233;DHT22;6179;51.748;8.728;2022-07-21T17:43:17;19.40;98.30
12233;DHT22;6179;51.748;8.728;2022-07-21T17:49:18;19.80;98.30
12233;DHT22;6179;51.748;8.728;2022-07-21T17:55:18;19.90;98.30
12233;DHT22;6179;51.748;8.728;2022-07-21T18:01:20;19.90;98.30
12233;DHT22;6179;51.748;8.728;2022-07-21T18:07:21;19.70;98.30
12233;DHT22;6179;51.748;8.728;2022-07-21T18:13:22;19.80;98.30
12233;DHT22;6179;51.748;8.728;2022-07-21T18:19:23;19.90;98.30
12233;DHT22;6179;51.748;8.728;2022-07-21T18:25:23;19.80;98.30
12233;DHT22;6179;51.748;8.728;2022-07-21T18:31:24;19.90;98.30
12233;DHT22;6179;51.748;8.728;2022-07-21T18:37:25;20.10;98.30
12233;DHT22;6179;51.748;8.728;2022-07-21T18:43:25;20.10;98.30
12233;DHT22;6179;51.748;8.728;2022-07-21T18:49:26;20.10;98.30
12233;DHT22;6179;51.748;8.728;2022-07-21T18:55:27;20.00;98.30
12233;DHT22;6179;51.748;8.728;2022-07-21T19:01:27;19.80;98.30
12233;DHT22;6179;51.748;8.728;2022-07-21T19:07:28;19.90;98.30
12233;DHT22;6179;51.748;8.728;2022-07-21T19:13:29;19.60;98.30
12233;DHT22;6179;51.748;8.728;2022-07-21T19:19:29;19.70;98.30
12233;DHT22;6179;51.748;8.728;2022-07-21T19:25:30;19.50;98.30
12233;DHT22;6179;51.748;8.728;2022-07-21T19:31:31;19.60;98.30
12233;DHT22;6179;51.748;8.728;2022-07-21T19:37:32;19.60;98.30
12233;DHT22;6179;51.748;8.728;2022-07-21T19:43:32;19.90;98.30
12233;DHT22;6179;51.748;8.728;2022-07-21T19:49:33;19.70;98.30
12233;DHT22;6179;51.748;8.728;2022-07-21T19:55:34;19.70;98.30
12233;DHT22;6179;51.748;8.728;2022-07-21T20:01:35;19.70;98.30
12233;DHT22;6179;51.748;8.728;2022-07-21T20:07:36;19.40;98.30
12233;DHT22;6179;51.748;8.728;2022-07-21T20:13:37;19.50;98.30
12233;DHT22;6179;51.748;8.728;2022-07-21T20:19:37;19.30;98.30
12233;DHT22;6179;51.748;8.728;2022-07-21T20:25:38;19.40;98.30
12233;DHT22;6179;51.748;8.728;2022-07-21T20:31:39;19.50;98.30
12233;DHT22;6179;51.748;8.728;2022-07-21T20:37:40;19.20;98.30
12233;DHT22;6179;51.748;8.728;2022-07-21T20:43:40;19.10;98.30
12233;DHT22;6179;51.748;8.728;2022-07-21T20:49:41;18.90;98.30
12233;DHT22;6179;51.748;8.728;2022-07-21T20:55:43;19.30;98.30
12233;DHT22;6179;51.748;8.728;2022-07-21T21:01:44;19.30;98.30
12233;DHT22;6179;51.748;8.728;2022-07-21T21:07:44;19.10;98.30
12233;DHT22;6179;51.748;8.728;2022-07-21T21:13:46;19.10;98.30
12233;DHT22;6179;51.748;8.728;2022-07-21T21:19:47;19.10;98.30
12233;DHT22;6179;51.748;8.728;2022-07-21T21:25:47;19.20;98.30
12233;DHT22;6179;51.748;8.728;2022-07-21T21:31:50;19.30;98.30
12233;DHT22;6179;51.748;8.728;2022-07-21T21:37:50;19.40;98.30
12233;DHT22;6179;51.748;8.728;2022-07-21T21:43:51;19.30;98.30
12233;DHT22;6179;51.748;8.728;2022-07-21T21:49:52;19.20;98.30
12233;DHT22;6179;51.748;8.728;2022-07-21T21:55:52;19.20;98.30
12233;DHT22;6179;51.748;8.728;2022-07-21T22:01:53;19.10;98.30
12233;DHT22;6179;51.748;8.728;2022-07-21T22:07:54;19.40;98.30
12233;DHT22;6179;51.748;8.728;2022-07-21T22:13:54;19.40;98.30
12233;DHT22;6179;51.748;8.728;2022-07-21T22:19:55;19.40;98.30
12233;DHT22;6179;51.748;8.728;2022-07-21T22:25:56;19.20;98.30
12233;DHT22;6179;51.748;8.728;2022-07-21T22:31:57;19.00;98.30
12233;DHT22;6179;51.748;8.728;2022-07-21T22:37:57;19.30;98.30
12233;DHT22;6179;51.748;8.728;2022-07-21T22:43:58;19.20;98.30
12233;DHT22;6179;51.748;8.728;2022-07-21T22:49:59;19.00;98.30
12233;DHT22;6179;51.748;8.728;2022-07-21T22:56:00;19.00;98.30
12233;DHT22;6179;51.748;8.728;2022-07-21T23:02:00;19.10;98.30
12233;DHT22;6179;51.748;8.728;2022-07-21T23:08:02;19.10;98.30
12233;DHT22;6179;51.748;8.728;2022-07-21T23:14:03;19.10;98.30
12233;DHT22;6179;51.748;8.728;2022-07-21T23:20:06;19.20;98.30
12233;DHT22;6179;51.748;8.728;2022-07-21T23:26:07;19.10;98.30
12233;DHT22;6179;51.748;8.728;2022-07-21T23:32:07;19.10;98.30
12233;DHT22;6179;51.748;8.728;2022-07-21T23:38:08;18.90;98.30
12233;DHT22;6179;51.748;8.728;2022-07-21T23:44:09;18.80;98.30
12233;DHT22;6179;51.748;8.728;2022-07-21T23:50:10;18.90;98.30
12233;DHT22;6179;51.748;8.728;2022-07-21T23:56:10;18.90;98.30
